Time;durP1;ratioP1;P1;durP2;ratioP2;P2;SDS_P1;SDS_P2;PMS_P1;PMS_P2;Temp;Humidity;BMP_temperature;BMP_pressure;BME280_temperature;BME280_humidity;BME280_pressure;Samples;Min_cycle;Max_cycle;Signal;HPM_P1;HPM_P2
2021/12/04 00:00:24;;;;;;;1.13;0.95;;;4.70;93.30;;;;;;5009840;28;20060;-79
2021/12/04 00:02:51;;;;;;;1.40;1.10;;;4.70;93.30;;;;;;5009520;28;20396;-77
2021/12/04 00:05:18;;;;;;;1.50;1.13;;;4.70;93.30;;;;;;4992798;28;20038;-76
2021/12/04 00:07:44;;;;;;;1.55;0.93;;;4.70;93.40;;;;;;4996187;28;20107;-77
2021/12/04 00:10:16;;;;;;;1.17;0.90;;;4.70;93.40;;;;;;5009872;28;20546;-78
2021/12/04 00:12:43;;;;;;;1.42;1.00;;;4.80;93.40;;;;;;4994531;28;20049;-78
2021/12/04 00:15:09;;;;;;;1.45;1.10;;;4.70;93.40;;;;;;4977161;28;20037;-78
2021/12/04 00:17:36;;;;;;;1.77;1.20;;;4.70;93.30;;;;;;4976951;28;20121;-77
2021/12/04 00:20:04;;;;;;;1.88;1.20;;;4.70;93.40;;;;;;4979550;28;20042;-77
2021/12/04 00:22:30;;;;;;;1.67;0.90;;;4.70;93.40;;;;;;4981062;28;20037;-77
2021/12/04 00:24:56;;;;;;;1.13;1.00;;;4.70;93.40;;;;;;4996632;28;20041;-76
2021/12/04 00:27:22;;;;;;;1.65;1.08;;;4.70;93.40;;;;;;4979939;28;20038;-77
2021/12/04 00:29:48;;;;;;;1.17;0.90;;;4.70;93.40;;;;;;4995515;28;20100;-77
2021/12/04 00:32:21;;;;;;;1.20;0.95;;;4.70;93.40;;;;;;4980279;28;20061;-77
2021/12/04 00:34:54;;;;;;;1.30;0.80;;;4.70;93.40;;;;;;4998122;28;20100;-76
2021/12/04 00:38:08;;;;;;;1.05;0.82;;;4.70;93.40;;;;;;4996557;28;20444;-77
2021/12/04 00:50:50;;;;;;;0.60;0.60;;;4.80;93.40;;;;;;5009572;28;20064;-76
2021/12/04 00:53:16;;;;;;;1.08;0.85;;;4.80;93.40;;;;;;5009454;28;20497;-76
2021/12/04 00:55:42;;;;;;;1.13;0.90;;;4.80;93.40;;;;;;4992761;28;20042;-76
2021/12/04 00:58:07;;;;;;;1.00;0.80;;;4.80;93.40;;;;;;5011295;28;20048;-76
2021/12/04 01:00:33;;;;;;;1.05;0.80;;;4.80;93.40;;;;;;5009579;28;20053;-77
2021/12/04 01:02:59;;;;;;;1.02;0.80;;;4.80;93.50;;;;;;5011460;28;20080;-77
2021/12/04 01:05:25;;;;;;;0.70;0.70;;;4.80;93.40;;;;;;5011793;28;20034;-76
2021/12/04 01:07:50;;;;;;;2.00;0.95;;;4.80;93.40;;;;;;5013149;28;20133;-77
2021/12/04 01:10:16;;;;;;;1.67;1.00;;;4.80;93.40;;;;;;4996009;28;20049;-77
2021/12/04 01:12:42;;;;;;;1.80;1.02;;;4.80;93.50;;;;;;5012152;28;20125;-77
2021/12/04 01:15:09;;;;;;;2.00;1.10;;;4.80;93.40;;;;;;4996728;28;20508;-77
2021/12/04 01:17:35;;;;;;;1.33;0.85;;;4.80;93.40;;;;;;5014850;28;20056;-77
2021/12/04 01:20:01;;;;;;;2.42;1.08;;;4.80;93.50;;;;;;4981886;28;20033;-77
2021/12/04 01:22:27;;;;;;;1.00;0.73;;;4.80;93.50;;;;;;4998632;28;20044;-77
2021/12/04 01:24:53;;;;;;;1.30;0.82;;;4.70;93.50;;;;;;5016475;28;20045;-77
2021/12/04 01:27:18;;;;;;;1.08;0.70;;;4.80;93.50;;;;;;4999326;28;20059;-77
2021/12/04 01:29:44;;;;;;;1.25;1.00;;;4.80;93.50;;;;;;5016198;28;20037;-77
2021/12/04 01:32:10;;;;;;;1.27;0.93;;;4.80;93.50;;;;;;5012525;28;20037;-77
2021/12/04 01:34:37;;;;;;;2.08;0.90;;;4.80;93.50;;;;;;5014764;28;20053;-77
2021/12/04 01:37:04;;;;;;;1.27;0.82;;;4.80;93.50;;;;;;5014015;28;20422;-77
2021/12/04 01:39:30;;;;;;;1.25;0.85;;;4.80;93.50;;;;;;4981101;28;20048;-77
2021/12/04 01:41:56;;;;;;;1.52;0.90;;;4.80;93.50;;;;;;5016137;28;20129;-77
2021/12/04 01:44:22;;;;;;;1.13;0.90;;;4.80;93.50;;;;;;4998669;28;20148;-77
2021/12/04 01:46:48;;;;;;;1.58;1.00;;;4.80;93.50;;;;;;5015239;28;20120;-77
2021/12/04 01:49:14;;;;;;;1.10;0.90;;;4.70;93.50;;;;;;5014642;28;20054;-77
2021/12/04 01:51:39;;;;;;;1.48;1.00;;;4.80;93.50;;;;;;5014381;28;20566;-77
2021/12/04 01:54:05;;;;;;;1.00;0.80;;;4.80;93.50;;;;;;4997809;28;20409;-76
2021/12/04 01:56:33;;;;;;;0.80;0.70;;;4.80;93.50;;;;;;4998129;28;20156;-77
2021/12/04 01:59:01;;;;;;;1.48;1.00;;;4.80;93.50;;;;;;5015746;28;20132;-77
2021/12/04 02:01:27;;;;;;;1.88;1.10;;;4.80;93.50;;;;;;5012313;28;20409;-77
2021/12/04 02:03:52;;;;;;;1.10;1.00;;;4.70;93.50;;;;;;5011560;28;20042;-77
2021/12/04 02:06:18;;;;;;;1.38;0.88;;;4.80;93.50;;;;;;5011157;28;20492;-77
2021/12/04 02:08:45;;;;;;;2.50;1.10;;;4.80;93.50;;;;;;5010488;28;20125;-77
2021/12/04 02:11:11;;;;;;;1.48;0.88;;;4.80;93.50;;;;;;5014171;28;20049;-77
2021/12/04 02:13:36;;;;;;;1.00;0.80;;;4.80;93.50;;;;;;5013483;28;20451;-77
2021/12/04 02:16:13;;;;;;;1.20;0.80;;;4.80;93.50;;;;;;5011349;28;20052;-77
2021/12/04 02:18:38;;;;;;;1.52;1.00;;;4.80;93.50;;;;;;4996632;28;20037;-78
2021/12/04 02:21:04;;;;;;;1.15;0.80;;;4.80;93.50;;;;;;5011515;28;20056;-77
2021/12/04 02:23:30;;;;;;;1.52;0.90;;;4.80;93.50;;;;;;5013567;28;20497;-77
2021/12/04 02:25:55;;;;;;;2.58;1.08;;;4.80;93.50;;;;;;5013498;28;20066;-77
2021/12/04 02:28:22;;;;;;;1.38;0.88;;;4.80;93.50;;;;;;4994610;28;20469;-77
2021/12/04 02:30:48;;;;;;;1.08;0.82;;;4.70;93.50;;;;;;5013340;28;20049;-77
2021/12/04 02:33:16;;;;;;;1.73;1.00;;;4.80;93.50;;;;;;5013292;28;20042;-77
2021/12/04 02:35:45;;;;;;;1.55;1.00;;;4.80;93.50;;;;;;5011800;28;20050;-77
2021/12/04 02:38:11;;;;;;;1.17;0.80;;;4.80;93.60;;;;;;5011184;28;20511;-77
2021/12/04 02:40:37;;;;;;;1.90;1.00;;;4.80;93.50;;;;;;5010965;28;20042;-77
2021/12/04 02:43:04;;;;;;;1.45;0.90;;;4.80;93.60;;;;;;5011326;28;20527;-77
2021/12/04 02:45:30;;;;;;;1.02;0.77;;;4.80;93.60;;;;;;5013020;28;20065;-77
2021/12/04 02:47:57;;;;;;;1.67;0.90;;;4.80;93.60;;;;;;4994446;28;20065;-77
2021/12/04 02:50:22;;;;;;;0.85;0.80;;;4.80;93.60;;;;;;5013437;28;20029;-76
2021/12/04 02:52:49;;;;;;;0.90;0.80;;;4.70;93.60;;;;;;5013034;28;20405;-76
2021/12/04 02:55:17;;;;;;;1.25;0.77;;;4.80;93.60;;;;;;5011668;28;20045;-77
2021/12/04 02:57:44;;;;;;;1.02;0.90;;;4.80;93.60;;;;;;5012764;28;20049;-77
2021/12/04 03:00:16;;;;;;;0.52;0.50;;;4.80;93.60;;;;;;5011069;28;20038;-77
2021/12/04 03:02:43;;;;;;;0.70;0.63;;;4.70;93.50;;;;;;5013304;28;20504;-77
2021/12/04 03:05:11;;;;;;;1.25;0.80;;;4.80;93.60;;;;;;5012910;28;20040;-76
2021/12/04 03:07:37;;;;;;;0.93;0.80;;;4.80;93.60;;;;;;5012802;28;20042;-77
2021/12/04 03:10:07;;;;;;;0.55;0.55;;;4.80;93.60;;;;;;4994708;28;20141;-77
2021/12/04 03:12:33;;;;;;;1.02;0.88;;;4.80;93.60;;;;;;5011034;28;20070;-77
2021/12/04 03:14:59;;;;;;;0.93;0.57;;;4.80;93.60;;;;;;5010460;28;20073;-77
2021/12/04 03:17:26;;;;;;;0.95;0.80;;;4.80;93.60;;;;;;5010030;28;20481;-77
2021/12/04 03:19:53;;;;;;;1.27;1.00;;;4.80;93.50;;;;;;5012813;28;20050;-77
2021/12/04 03:22:21;;;;;;;0.50;0.32;;;4.80;93.60;;;;;;5012709;28;20041;-76
2021/12/04 03:24:47;;;;;;;1.05;0.70;;;4.80;93.60;;;;;;5010076;28;20366;-77
2021/12/04 03:27:15;;;;;;;1.15;0.70;;;4.80;93.50;;;;;;4993769;28;20116;-77
2021/12/04 03:29:46;;;;;;;0.50;0.50;;;4.80;93.60;;;;;;5012434;28;20041;-77
2021/12/04 03:43:00;;;;;;;0.60;0.60;;;4.80;93.60;;;;;;5018364;28;20038;-77
2021/12/04 03:45:25;;;;;;;1.05;0.68;;;4.80;93.60;;;;;;5013007;28;20041;-77
2021/12/04 03:47:55;;;;;;;0.60;0.60;;;4.80;93.60;;;;;;5012656;28;20045;-77
2021/12/04 03:50:21;;;;;;;0.50;0.47;;;4.80;93.60;;;;;;5013039;28;20041;-77
2021/12/04 03:52:47;;;;;;;0.63;0.52;;;4.80;93.60;;;;;;5013471;28;20420;-77
2021/12/04 03:55:13;;;;;;;0.75;0.60;;;4.80;93.60;;;;;;5012388;28;20052;-77
2021/12/04 03:57:44;;;;;;;0.70;0.47;;;4.90;93.60;;;;;;5011942;28;20058;-77
2021/12/04 04:00:12;;;;;;;0.60;0.50;;;4.90;93.60;;;;;;5011896;28;20070;-77
2021/12/04 04:02:38;;;;;;;0.95;0.63;;;4.90;93.60;;;;;;5012942;28;20408;-77
2021/12/04 04:05:05;;;;;;;0.68;0.47;;;4.90;93.60;;;;;;4996790;28;20041;-77
2021/12/04 04:07:31;;;;;;;0.55;0.40;;;4.90;93.60;;;;;;5012709;28;20033;-77
2021/12/04 04:09:57;;;;;;;0.50;0.40;;;4.90;93.60;;;;;;5011916;28;20034;-77
2021/12/04 04:12:22;;;;;;;0.40;0.40;;;4.90;93.60;;;;;;5012272;28;20077;-77
2021/12/04 04:14:48;;;;;;;0.80;0.50;;;4.90;93.60;;;;;;5013112;28;20370;-77
2021/12/04 04:17:14;;;;;;;0.70;0.50;;;4.90;93.60;;;;;;4994446;28;20049;-77
2021/12/04 04:19:40;;;;;;;0.40;0.40;;;4.90;93.60;;;;;;5012575;28;20049;-77
2021/12/04 04:22:06;;;;;;;0.77;0.52;;;5.00;93.70;;;;;;5013092;28;20034;-76
2021/12/04 04:24:33;;;;;;;0.65;0.40;;;5.00;93.60;;;;;;5013422;28;20053;-77
2021/12/04 04:26:59;;;;;;;0.93;0.55;;;5.00;93.90;;;;;;4993739;28;20069;-76
2021/12/04 04:29:25;;;;;;;1.45;0.95;;;5.00;93.60;;;;;;5012196;28;20150;-76
2021/12/04 04:31:53;;;;;;;1.48;0.88;;;4.90;93.60;;;;;;4996271;28;20500;-77
2021/12/04 04:34:25;;;;;;;0.90;0.57;;;5.00;93.60;;;;;;5012103;28;20412;-77
2021/12/04 04:37:09;;;;;;;1.13;0.63;;;5.00;93.60;;;;;;5015320;28;20045;-76
2021/12/04 04:40:10;;;;;;;1.20;0.60;;;4.90;93.70;;;;;;5016190;28;20127;-76
2021/12/04 04:58:41;;;;;;;0.70;0.55;;;4.90;93.60;;;;;;5013039;28;20133;-77
2021/12/04 05:01:32;;;;;;;2.85;0.98;;;4.90;93.60;;;;;;4998626;28;20088;-77
2021/12/04 05:14:37;;;;;;;1.25;0.75;;;4.90;93.60;;;;;;5013240;28;20547;-77
2021/12/04 05:17:08;;;;;;;0.73;0.50;;;4.90;93.60;;;;;;5016215;28;20561;-76
2021/12/04 05:22:15;;;;;;;1.55;0.75;;;5.00;93.70;;;;;;5014542;28;20133;-77
2021/12/04 05:24:41;;;;;;;1.25;0.90;;;5.00;93.70;;;;;;5013585;28;20508;-77
2021/12/04 05:27:08;;;;;;;2.63;0.90;;;5.00;93.80;;;;;;4982257;28;20042;-76
2021/12/04 05:29:34;;;;;;;1.25;0.68;;;5.00;93.70;;;;;;5014596;28;20065;-77
2021/12/04 05:32:01;;;;;;;1.92;0.90;;;5.00;93.60;;;;;;5014466;28;20049;-76
2021/12/04 05:34:27;;;;;;;2.05;0.90;;;5.00;93.70;;;;;;5015834;28;20041;-77
2021/12/04 05:36:52;;;;;;;1.77;0.90;;;4.90;93.60;;;;;;4997052;28;20432;-77
2021/12/04 05:39:18;;;;;;;3.20;0.90;;;5.00;93.80;;;;;;4996171;28;20044;-77
2021/12/04 05:41:44;;;;;;;2.75;1.13;;;5.00;93.70;;;;;;4995475;28;20034;-77
2021/12/04 05:44:12;;;;;;;1.85;0.90;;;4.90;93.60;;;;;;5012860;28;20370;-77
2021/12/04 05:46:44;;;;;;;1.27;0.70;;;4.90;93.70;;;;;;5014428;28;20034;-78
2021/12/04 05:52:09;;;;;;;2.92;0.80;;;4.90;93.70;;;;;;5014131;28;20177;-77
2021/12/04 05:54:45;;;;;;;2.33;0.75;;;5.00;93.70;;;;;;5013171;28;20042;-77
2021/12/04 05:57:12;;;;;;;1.55;0.98;;;4.90;93.70;;;;;;5009226;28;20057;-77
2021/12/04 05:59:38;;;;;;;1.15;0.68;;;5.00;93.70;;;;;;5013933;28;20370;-77
2021/12/04 06:02:04;;;;;;;1.55;0.90;;;5.00;93.70;;;;;;5012042;28;20046;-77
2021/12/04 06:04:31;;;;;;;1.75;1.00;;;5.00;93.70;;;;;;5014067;28;20034;-76
2021/12/04 06:06:57;;;;;;;2.45;0.90;;;4.90;93.60;;;;;;4994529;28;20369;-76
2021/12/04 06:09:22;;;;;;;1.75;1.00;;;4.90;93.70;;;;;;5012094;28;20058;-77
2021/12/04 06:11:49;;;;;;;1.75;0.80;;;4.90;93.70;;;;;;5014009;28;20392;-77
2021/12/04 06:14:14;;;;;;;2.08;0.93;;;4.90;93.70;;;;;;5011323;28;20041;-76
2021/12/04 06:16:40;;;;;;;1.55;0.95;;;5.00;93.70;;;;;;5014044;28;20096;-76
2021/12/04 06:19:12;;;;;;;1.45;0.98;;;5.00;93.70;;;;;;5012146;28;20501;-77
2021/12/04 06:24:19;;;;;;;2.27;1.20;;;4.90;93.70;;;;;;5011565;28;20416;-77
2021/12/04 06:26:45;;;;;;;1.77;0.90;;;4.90;93.70;;;;;;5011210;28;20120;-77
2021/12/04 06:29:10;;;;;;;1.35;0.82;;;5.00;93.70;;;;;;4995551;28;20469;-77
2021/12/04 06:31:36;;;;;;;3.65;1.20;;;5.00;93.70;;;;;;5014100;28;20022;-77
2021/12/04 06:34:02;;;;;;;1.48;0.82;;;4.90;93.60;;;;;;4978567;28;20134;-76
2021/12/04 06:36:28;;;;;;;2.13;1.08;;;4.90;93.70;;;;;;5012356;28;20038;-76
2021/12/04 06:38:54;;;;;;;2.65;1.00;;;4.90;93.70;;;;;;4995171;28;20069;-75
2021/12/04 06:41:20;;;;;;;3.35;1.00;;;4.90;93.70;;;;;;5013867;28;20038;-75
2021/12/04 06:43:49;;;;;;;1.77;0.98;;;4.90;93.70;;;;;;4994029;28;20128;-74
2021/12/04 06:46:17;;;;;;;1.90;1.00;;;4.90;93.60;;;;;;5014939;28;20045;-76
2021/12/04 06:48:56;;;;;;;1.83;1.05;;;4.90;93.70;;;;;;5023574;28;21459;-76
2021/12/04 06:51:26;;;;;;;1.63;0.90;;;4.90;93.70;;;;;;5010856;28;20485;-77
2021/12/04 06:54:04;;;;;;;1.63;0.98;;;5.00;93.70;;;;;;5029061;28;20072;-76
2021/12/04 06:56:35;;;;;;;2.90;1.10;;;5.00;93.70;;;;;;5030853;28;20057;-76
2021/12/04 06:59:08;;;;;;;1.33;0.75;;;5.00;93.70;;;;;;5029778;28;20050;-76
2021/12/04 07:01:34;;;;;;;2.28;1.10;;;5.00;93.70;;;;;;5033639;28;20033;-77
2021/12/04 07:04:00;;;;;;;2.28;1.00;;;4.90;93.70;;;;;;5037052;28;20030;-77
2021/12/04 07:06:26;;;;;;;2.15;1.05;;;4.90;93.70;;;;;;5035737;28;20046;-77
2021/12/04 07:08:52;;;;;;;2.25;0.80;;;5.00;93.70;;;;;;5037863;28;20040;-78
2021/12/04 07:11:18;;;;;;;1.10;0.75;;;5.00;93.70;;;;;;5020203;28;20106;-77
2021/12/04 07:13:44;;;;;;;2.08;0.95;;;5.00;93.70;;;;;;5019877;28;20052;-78
2021/12/04 07:16:13;;;;;;;1.35;0.68;;;5.00;93.70;;;;;;5003118;28;20046;-77
2021/12/04 07:18:39;;;;;;;1.02;0.63;;;5.00;93.70;;;;;;5037280;28;20041;-76
2021/12/04 07:21:08;;;;;;;1.50;0.77;;;5.10;93.70;;;;;;5023908;28;20037;-76
2021/12/04 07:23:34;;;;;;;1.58;0.93;;;5.10;93.70;;;;;;5037080;28;20097;-76
2021/12/04 07:26:08;;;;;;;1.38;0.60;;;5.10;93.70;;;;;;5028693;28;20053;-76
2021/12/04 07:28:37;;;;;;;1.05;0.70;;;5.10;93.70;;;;;;5026590;28;20030;-77
2021/12/04 07:31:04;;;;;;;0.80;0.60;;;5.10;93.70;;;;;;5004416;28;20029;-75
2021/12/04 07:33:31;;;;;;;1.60;0.70;;;5.10;93.70;;;;;;5019609;28;20077;-76
2021/12/04 07:35:57;;;;;;;2.00;0.93;;;5.10;94.00;;;;;;5034886;28;20046;-76
2021/12/04 07:38:24;;;;;;;2.25;1.02;;;5.10;93.70;;;;;;5029765;28;20069;-76
2021/12/04 07:40:50;;;;;;;2.72;1.10;;;5.10;93.70;;;;;;5020357;28;20041;-76
2021/12/04 07:43:16;;;;;;;2.83;1.20;;;5.10;93.70;;;;;;5035530;28;20064;-77
2021/12/04 07:45:42;;;;;;;2.38;1.17;;;5.00;93.70;;;;;;5036770;28;20050;-76
2021/12/04 07:48:08;;;;;;;1.98;0.90;;;5.10;93.70;;;;;;5040124;28;20049;-77
2021/12/04 07:50:35;;;;;;;2.10;0.93;;;5.10;93.70;;;;;;5039236;28;20069;-76
2021/12/04 07:53:02;;;;;;;3.05;1.23;;;5.10;93.70;;;;;;5037828;28;20042;-76
2021/12/04 07:55:28;;;;;;;2.85;1.30;;;5.10;93.70;;;;;;5020260;28;20030;-77
2021/12/04 07:57:54;;;;;;;2.85;1.13;;;5.10;93.70;;;;;;5035390;28;20041;-77
2021/12/04 08:00:22;;;;;;;2.13;1.00;;;5.10;93.70;;;;;;5036184;28;20042;-77
2021/12/04 08:02:48;;;;;;;1.92;1.05;;;5.10;93.70;;;;;;5035595;28;20041;-77
2021/12/04 08:05:16;;;;;;;2.05;1.10;;;5.10;93.70;;;;;;5021680;28;20050;-77
2021/12/04 08:07:42;;;;;;;1.45;0.90;;;5.30;93.80;;;;;;5040162;28;20097;-77
2021/12/04 08:10:11;;;;;;;2.53;1.30;;;5.20;93.70;;;;;;5022773;28;20045;-77
2021/12/04 08:12:37;;;;;;;2.17;0.93;;;5.20;93.70;;;;;;5036370;28;20080;-76
2021/12/04 08:15:06;;;;;;;2.85;1.13;;;5.20;93.70;;;;;;5021289;28;20034;-77
2021/12/04 08:17:32;;;;;;;3.05;1.40;;;5.20;93.70;;;;;;5037909;28;20046;-76
2021/12/04 08:19:58;;;;;;;1.95;0.88;;;5.20;93.70;;;;;;5020022;28;20053;-77
2021/12/04 08:22:23;;;;;;;3.22;1.20;;;5.20;93.70;;;;;;5034871;28;20092;-76
2021/12/04 08:24:49;;;;;;;3.30;1.50;;;5.30;93.70;;;;;;5037394;28;20034;-77
2021/12/04 08:27:16;;;;;;;2.67;1.25;;;5.30;93.70;;;;;;5021367;28;20109;-78
2021/12/04 08:29:42;;;;;;;1.30;0.90;;;5.30;93.70;;;;;;5002167;28;20018;-77
2021/12/04 08:32:09;;;;;;;2.53;1.27;;;5.30;93.70;;;;;;5033943;28;20053;-77
2021/12/04 08:34:36;;;;;;;2.40;1.00;;;5.30;93.70;;;;;;5034934;28;20072;-77
2021/12/04 08:37:03;;;;;;;1.25;0.85;;;5.30;93.70;;;;;;5034651;28;20046;-77
2021/12/04 08:39:30;;;;;;;2.92;1.15;;;5.30;93.70;;;;;;5034923;28;20034;-78
2021/12/04 08:41:57;;;;;;;3.22;1.15;;;5.30;93.60;;;;;;5034118;28;20093;-78
2021/12/04 08:44:23;;;;;;;1.55;0.77;;;5.30;93.70;;;;;;5036713;28;20030;-78
2021/12/04 08:46:49;;;;;;;3.55;1.23;;;5.30;93.70;;;;;;5036831;28;20034;-75
2021/12/04 08:49:16;;;;;;;1.70;0.77;;;5.30;93.70;;;;;;5035736;28;20042;-76
2021/12/04 08:51:42;;;;;;;3.00;1.10;;;5.50;93.70;;;;;;5036013;28;20140;-77
2021/12/04 08:54:13;;;;;;;1.42;0.90;;;5.30;93.60;;;;;;5036354;28;20061;-77
2021/12/04 08:56:39;;;;;;;0.82;0.70;;;5.40;93.60;;;;;;5030981;28;20042;-75
2021/12/04 08:59:07;;;;;;;0.85;0.47;;;5.40;93.70;;;;;;5016269;28;20034;-77
2021/12/04 09:01:37;;;;;;;1.10;0.68;;;5.40;93.70;;;;;;5032479;28;20056;-76
2021/12/04 09:04:07;;;;;;;2.40;0.95;;;5.50;93.70;;;;;;5036238;28;20054;-78
2021/12/04 09:06:34;;;;;;;2.20;0.82;;;5.50;93.60;;;;;;5021248;28;20045;-77
2021/12/04 09:09:00;;;;;;;1.85;0.90;;;5.50;93.70;;;;;;5035003;28;20018;-77
2021/12/04 09:11:32;;;;;;;2.35;0.85;;;5.50;93.60;;;;;;5034747;28;20065;-77
2021/12/04 09:13:59;;;;;;;3.90;1.40;;;5.60;93.60;;;;;;5018819;28;20038;-77
2021/12/04 09:16:26;;;;;;;2.50;0.90;;;5.60;93.60;;;;;;5036175;28;20065;-77
2021/12/04 09:18:52;;;;;;;1.70;0.98;;;5.60;93.90;;;;;;5035809;28;20053;-76
2021/12/04 09:21:18;;;;;;;1.83;0.77;;;5.60;93.60;;;;;;5034730;28;20203;-76
2021/12/04 09:23:48;;;;;;;3.00;1.15;;;5.60;93.60;;;;;;5036825;28;20057;-76
2021/12/04 09:26:29;;;;;;;2.70;0.98;;;5.60;93.60;;;;;;5015383;28;20045;-77
2021/12/04 09:29:08;;;;;;;2.13;1.10;;;5.60;93.60;;;;;;5025314;28;20068;-77
2021/12/04 09:31:47;;;;;;;3.15;1.08;;;5.70;93.60;;;;;;5032300;28;20041;-77
2021/12/04 10:12:20;;;;;;;1.27;0.93;;;5.80;93.50;;;;;;5013760;28;20057;-78
2021/12/04 10:14:57;;;;;;;0.80;0.60;;;5.80;93.50;;;;;;5013593;28;20054;-78
2021/12/04 10:20:17;;;;;;;1.80;1.15;;;5.90;93.60;;;;;;5012478;28;20430;-78
2021/12/04 10:33:51;;;;;;;3.47;1.50;;;5.90;93.50;;;;;;5012602;28;20042;-78
2021/12/04 10:36:29;;;;;;;4.50;1.30;;;5.90;93.40;;;;;;5012804;28;20026;-78
2021/12/04 10:38:56;;;;;;;2.47;1.17;;;5.90;93.50;;;;;;5015236;28;20053;-78
2021/12/04 10:41:32;;;;;;;1.67;0.90;;;5.90;93.60;;;;;;5014748;28;20038;-78
2021/12/04 10:44:22;;;;;;;1.48;1.00;;;6.00;93.60;;;;;;5012302;28;20049;-78
2021/12/04 10:47:02;;;;;;;1.95;0.98;;;6.00;93.60;;;;;;4993159;28;20032;-78
2021/12/04 10:49:44;;;;;;;2.15;1.02;;;6.00;93.60;;;;;;5013213;28;20038;-78
2021/12/04 10:52:23;;;;;;;4.38;1.50;;;6.00;93.50;;;;;;5010028;28;20461;-79
2021/12/04 10:54:53;;;;;;;3.88;1.60;;;5.90;93.50;;;;;;5011752;28;20033;-79
2021/12/04 11:00:16;;;;;;;2.95;1.30;;;5.90;93.50;;;;;;5011365;28;20072;-78
2021/12/04 11:02:46;;;;;;;1.67;1.20;;;5.90;93.60;;;;;;5013414;28;20120;-78
2021/12/04 11:05:46;;;;;;;2.55;1.15;;;5.80;93.60;;;;;;5013160;28;20132;-78
2021/12/04 11:22:43;;;;;;;3.30;1.35;;;6.00;93.50;;;;;;5009858;28;20049;-78
2021/12/04 11:25:34;;;;;;;3.85;1.17;;;6.00;93.50;;;;;;5011085;28;20030;-77
2021/12/04 11:28:16;;;;;;;3.40;1.33;;;6.00;93.50;;;;;;4997667;28;20069;-78
2021/12/04 11:38:53;;;;;;;3.70;1.10;;;6.10;93.50;;;;;;5012606;28;20073;-78
2021/12/04 11:41:34;;;;;;;1.95;1.10;;;6.10;93.50;;;;;;5010848;28;20048;-77
2021/12/04 11:44:05;;;;;;;2.13;1.08;;;6.00;93.50;;;;;;4995785;28;20046;-78
2021/12/04 11:46:53;;;;;;;1.80;1.02;;;6.00;93.50;;;;;;4978568;28;20388;-78
2021/12/04 11:49:24;;;;;;;1.85;1.00;;;6.10;93.50;;;;;;4997794;28;20065;-78
2021/12/04 11:51:58;;;;;;;1.73;1.00;;;6.10;93.50;;;;;;5011150;28;20549;-78
2021/12/04 11:54:28;;;;;;;2.70;1.38;;;6.10;93.50;;;;;;5008181;28;20048;-78
2021/12/04 11:56:59;;;;;;;2.03;1.20;;;6.00;93.50;;;;;;5010790;28;20034;-78
2021/12/04 11:59:30;;;;;;;2.38;1.10;;;6.00;93.50;;;;;;4977218;28;20038;-77
2021/12/04 12:02:00;;;;;;;2.75;1.20;;;6.00;93.50;;;;;;5009651;28;20042;-79
2021/12/04 12:04:36;;;;;;;3.88;1.27;;;6.00;93.60;;;;;;5011166;28;20038;-78
2021/12/04 12:07:11;;;;;;;4.22;1.48;;;6.00;93.60;;;;;;5011391;28;20041;-78
2021/12/04 12:09:39;;;;;;;1.63;0.98;;;6.00;93.60;;;;;;5010861;28;20034;-78
2021/12/04 12:12:07;;;;;;;1.80;1.08;;;6.10;93.60;;;;;;4994447;28;20026;-78
2021/12/04 12:14:40;;;;;;;1.15;0.95;;;6.10;93.60;;;;;;5012085;28;20496;-78
2021/12/04 12:17:06;;;;;;;2.10;1.00;;;6.10;93.60;;;;;;5010511;28;20053;-78
2021/12/04 12:19:38;;;;;;;1.25;0.88;;;6.00;93.50;;;;;;5010436;28;20053;-78
2021/12/04 12:22:11;;;;;;;;;;;6.10;93.60;;;;;;5010374;28;20037;-78
2021/12/04 12:25:06;;;;;;;1.35;0.90;;;6.10;93.60;;;;;;4994799;28;19925;-78
2021/12/04 12:33:27;;;;;;;1.92;1.00;;;6.00;93.60;;;;;;5009176;28;20108;-78
2021/12/04 12:36:03;;;;;;;1.57;0.90;;;6.10;93.60;;;;;;5010406;28;20050;-78
2021/12/04 12:38:47;;;;;;;2.00;0.88;;;6.10;93.60;;;;;;5008845;28;20046;-78
2021/12/04 12:41:37;;;;;;;1.55;0.60;;;6.10;93.60;;;;;;5013390;28;20481;-79
2021/12/04 12:44:14;;;;;;;1.90;0.90;;;6.10;93.60;;;;;;5007971;28;20034;-78
2021/12/04 12:46:46;;;;;;;1.17;0.88;;;6.10;93.60;;;;;;4994046;28;20041;-78
2021/12/04 12:49:30;;;;;;;0.93;0.68;;;6.10;93.60;;;;;;5011715;28;20120;-79
2021/12/04 12:52:00;;;;;;;1.50;1.00;;;6.10;93.60;;;;;;4993986;28;20500;-78
2021/12/04 12:54:48;;;;;;;1.15;0.90;;;6.20;93.60;;;;;;5010158;28;20041;-78
2021/12/04 12:57:31;;;;;;;0.95;0.60;;;6.10;93.60;;;;;;5011397;28;20033;-79
2021/12/04 13:14:11;;;;;;;1.52;0.90;;;6.20;93.60;;;;;;5001929;28;20053;-78
2021/12/04 13:16:41;;;;;;;1.20;0.60;;;6.10;93.60;;;;;;4999411;28;20046;-78
2021/12/04 13:19:09;;;;;;;0.98;0.80;;;6.10;93.60;;;;;;5015798;28;20520;-78
2021/12/04 13:21:39;;;;;;;1.35;0.90;;;6.20;93.60;;;;;;5015892;28;20038;-78
2021/12/04 13:24:09;;;;;;;1.08;0.80;;;6.20;93.60;;;;;;4997932;28;20041;-78
2021/12/04 13:26:39;;;;;;;1.48;0.93;;;6.20;93.60;;;;;;5015278;28;20038;-78
2021/12/04 13:29:07;;;;;;;1.58;1.13;;;6.20;93.60;;;;;;4983446;28;20525;-78
2021/12/04 13:31:37;;;;;;;1.25;0.80;;;6.20;93.60;;;;;;5016334;28;20049;-78
2021/12/04 13:34:06;;;;;;;1.35;0.73;;;6.10;93.60;;;;;;5012705;28;20119;-78
2021/12/04 13:36:32;;;;;;;0.70;0.70;;;6.10;93.60;;;;;;5016245;28;20047;-78
2021/12/04 13:39:03;;;;;;;1.02;0.75;;;6.20;93.70;;;;;;5016218;28;20050;-78
2021/12/04 13:41:30;;;;;;;1.20;0.77;;;6.10;93.70;;;;;;5016121;28;20045;-78
2021/12/04 13:43:58;;;;;;;1.17;0.90;;;6.20;93.70;;;;;;5015539;28;20301;-78
2021/12/04 13:46:25;;;;;;;1.10;0.90;;;6.10;93.60;;;;;;5015284;28;20096;-78
2021/12/04 13:48:58;;;;;;;1.10;0.73;;;6.10;93.70;;;;;;5014841;28;20058;-78
2021/12/04 13:51:23;;;;;;;1.70;1.10;;;6.00;93.70;;;;;;5017190;28;20089;-78
2021/12/04 13:53:49;;;;;;;1.00;0.80;;;6.00;93.70;;;;;;4996584;28;20049;-78
2021/12/04 13:56:17;;;;;;;1.95;1.20;;;6.00;93.70;;;;;;5015381;28;20045;-78
2021/12/04 13:58:48;;;;;;;1.85;0.98;;;6.00;93.70;;;;;;5014793;28;20038;-78
2021/12/04 14:01:14;;;;;;;1.35;1.10;;;6.00;93.70;;;;;;5014064;28;20050;-78
2021/12/04 14:03:41;;;;;;;1.55;0.93;;;6.00;93.70;;;;;;5015584;28;20057;-78
2021/12/04 14:06:18;;;;;;;3.35;1.25;;;6.00;93.70;;;;;;4996078;28;20500;-77
2021/12/04 14:08:56;;;;;;;1.33;0.98;;;6.00;93.70;;;;;;5014455;28;20489;-79
2021/12/04 14:11:32;;;;;;;2.45;1.40;;;6.10;93.70;;;;;;5012395;28;20042;-79
2021/12/04 14:14:08;;;;;;;2.10;1.38;;;6.00;93.70;;;;;;5012648;28;20057;-79
2021/12/04 14:16:33;;;;;;;2.58;1.52;;;6.00;93.70;;;;;;5015155;28;20080;-78
2021/12/04 14:18:59;;;;;;;2.80;1.60;;;6.00;93.60;;;;;;5014771;28;20541;-79
2021/12/04 14:21:25;;;;;;;3.35;1.80;;;5.90;93.60;;;;;;5014258;28;20042;-78
2021/12/04 14:23:50;;;;;;;2.72;1.58;;;6.00;93.60;;;;;;4999324;28;20489;-78
2021/12/04 14:26:16;;;;;;;2.78;1.50;;;5.90;93.60;;;;;;5015049;28;20058;-79
2021/12/04 14:28:44;;;;;;;3.25;1.50;;;5.90;93.60;;;;;;4998134;28;20037;-78
2021/12/04 14:31:12;;;;;;;2.83;1.65;;;6.00;93.70;;;;;;4997636;28;20070;-79
2021/12/04 14:33:40;;;;;;;2.53;1.50;;;5.90;93.60;;;;;;5013815;28;20393;-78
2021/12/04 14:36:06;;;;;;;1.83;1.30;;;6.00;93.60;;;;;;5014745;28;20045;-79
2021/12/04 14:38:33;;;;;;;2.90;1.60;;;5.90;93.60;;;;;;5014363;28;20042;-79
2021/12/04 14:41:03;;;;;;;2.67;1.52;;;5.90;93.60;;;;;;5015401;28;20049;-79
2021/12/04 14:43:33;;;;;;;2.15;1.45;;;6.00;93.70;;;;;;5012371;28;20045;-79
2021/12/04 14:45:59;;;;;;;3.17;1.70;;;6.00;93.70;;;;;;5014915;28;20061;-78
2021/12/04 14:48:33;;;;;;;2.65;1.60;;;5.90;93.60;;;;;;5012252;28;20121;-79
2021/12/04 14:51:06;;;;;;;2.30;1.50;;;5.90;93.60;;;;;;4996011;28;20042;-79
2021/12/04 14:53:34;;;;;;;2.17;1.20;;;5.90;93.60;;;;;;5014249;28;20046;-79
2021/12/04 14:56:07;;;;;;;3.00;1.67;;;5.90;93.60;;;;;;5014891;28;20049;-78
2021/12/04 14:58:34;;;;;;;2.42;1.42;;;5.90;93.60;;;;;;5011544;28;20519;-78
2021/12/04 15:01:04;;;;;;;3.10;1.80;;;5.90;93.60;;;;;;5013874;28;20129;-79
2021/12/04 15:03:36;;;;;;;3.40;1.85;;;6.00;93.60;;;;;;5013651;28;20062;-78
2021/12/04 15:06:05;;;;;;;2.92;1.70;;;6.00;93.70;;;;;;5014845;28;20038;-79
2021/12/04 15:08:33;;;;;;;3.67;1.88;;;6.00;93.60;;;;;;5013261;28;20052;-79
2021/12/04 15:11:05;;;;;;;2.50;1.65;;;5.90;93.60;;;;;;5011651;28;20042;-79
2021/12/04 15:13:36;;;;;;;2.95;1.52;;;6.00;93.60;;;;;;5011176;28;20070;-78
2021/12/04 15:16:07;;;;;;;2.53;1.63;;;5.90;93.60;;;;;;5008304;28;20042;-80
2021/12/04 15:18:34;;;;;;;;;;;5.90;93.60;;;;;;5009157;28;20107;-79
2021/12/04 15:21:04;;;;;;;2.33;1.50;;;6.00;93.70;;;;;;5009558;28;19924;-79
2021/12/04 15:23:31;;;;;;;2.72;1.58;;;5.90;93.60;;;;;;5009348;28;20149;-79
2021/12/04 15:26:09;;;;;;;2.97;1.40;;;5.90;93.60;;;;;;5013683;28;20083;-79
2021/12/04 15:28:35;;;;;;;2.28;1.40;;;6.00;93.70;;;;;;5013411;28;20038;-79
2021/12/04 15:31:02;;;;;;;2.97;1.63;;;5.90;93.60;;;;;;4995205;28;20126;-79
2021/12/04 15:33:35;;;;;;;2.58;1.45;;;6.00;93.70;;;;;;5012814;28;20667;-79
2021/12/04 15:36:02;;;;;;;3.10;1.50;;;6.00;93.70;;;;;;4979287;28;20125;-79
2021/12/04 15:38:51;;;;;;;2.90;1.52;;;5.90;93.60;;;;;;5013769;28;20056;-79
2021/12/04 15:47:02;;;;;;;4.05;1.63;;;6.00;93.70;;;;;;5000131;28;20060;-79